createdAt,value
2018-03-24T00:01:33.286Z,98826
2018-03-24T00:04:00.618Z,98830
2018-03-24T00:06:27.853Z,98829
2018-03-24T00:08:55.470Z,98833
2018-03-24T00:11:24.711Z,98830
2018-03-24T00:13:51.837Z,98832
2018-03-24T00:16:19.110Z,98833
2018-03-24T00:18:46.250Z,98830
2018-03-24T00:21:16.918Z,98825
2018-03-24T00:23:44.147Z,98822
2018-03-24T00:26:12.194Z,98826
2018-03-24T00:28:39.400Z,98820
2018-03-24T00:31:07.833Z,98816
2018-03-24T00:33:35.082Z,98807
2018-03-24T00:36:02.235Z,98808
2018-03-24T00:38:29.342Z,98811
2018-03-24T00:41:00.458Z,98809
2018-03-24T00:43:27.674Z,98790
2018-03-24T00:45:54.897Z,98791
2018-03-24T00:48:22.176Z,98793
2018-03-24T00:50:50.793Z,98787
2018-03-24T00:53:18.876Z,98784
2018-03-24T00:55:46.049Z,98776
2018-03-24T00:58:13.261Z,98779
2018-03-24T01:00:43.667Z,98778
2018-03-24T01:03:10.921Z,98775
2018-03-24T01:05:38.077Z,98773
2018-03-24T01:08:05.226Z,98781
2018-03-24T01:10:33.602Z,98778
2018-03-24T01:13:00.820Z,98766
2018-03-24T01:15:28.142Z,98756
2018-03-24T01:17:55.437Z,98754
2018-03-24T01:20:23.924Z,98765
2018-03-24T01:22:51.100Z,98765
2018-03-24T01:25:19.022Z,98774
2018-03-24T01:27:46.370Z,98770
2018-03-24T01:30:14.513Z,98764
2018-03-24T01:32:41.735Z,98770
2018-03-24T01:35:09.865Z,98786
2018-03-24T01:37:37.301Z,98795
2018-03-24T01:40:07.862Z,98794
2018-03-24T01:42:35.073Z,98800
2018-03-24T01:45:02.306Z,98798
2018-03-24T01:47:29.538Z,98801
2018-03-24T01:50:00.592Z,98809
2018-03-24T01:52:27.861Z,98802
2018-03-24T01:54:54.963Z,98800
2018-03-24T01:57:22.181Z,98801
2018-03-24T01:59:49.556Z,98805
2018-03-24T02:02:16.830Z,98803
2018-03-24T02:04:44.138Z,98810
2018-03-24T02:07:11.337Z,98820
2018-03-24T02:09:38.624Z,98823
2018-03-24T02:12:05.865Z,98828
2018-03-24T02:14:33.162Z,98831
2018-03-24T02:17:00.456Z,98839
2018-03-24T02:19:33.742Z,98845
2018-03-24T02:22:00.874Z,98838
2018-03-24T02:24:28.141Z,98840
2018-03-24T02:26:56.397Z,98844
2018-03-24T02:29:24.782Z,98845
2018-03-24T02:31:52.113Z,98845
2018-03-24T02:34:19.337Z,98849
2018-03-24T02:36:46.606Z,98859
2018-03-24T02:39:13.845Z,98865
2018-03-24T02:41:41.046Z,98876
2018-03-24T02:44:08.247Z,98884
2018-03-24T02:46:35.557Z,98890
2018-03-24T02:49:02.586Z,98887
2018-03-24T02:51:30.937Z,98891
2018-03-24T02:53:58.118Z,98889
2018-03-24T02:56:25.830Z,98884
2018-03-24T02:58:53.142Z,98884
2018-03-24T03:01:21.436Z,98884
2018-03-24T03:03:48.669Z,98888
2018-03-24T03:06:15.891Z,98892
2018-03-24T03:08:43.120Z,98893
2018-03-24T03:11:11.616Z,98903
2018-03-24T03:13:38.801Z,98899
2018-03-24T03:16:06.026Z,98900
2018-03-24T03:18:33.251Z,98900
2018-03-24T03:21:01.674Z,98905
2018-03-24T03:23:29.222Z,98911
2018-03-24T03:25:56.493Z,98915
2018-03-24T03:28:23.749Z,98924
2018-03-24T03:30:53.290Z,98928
2018-03-24T03:33:21.203Z,98929
2018-03-24T03:35:48.453Z,98923
2018-03-24T03:38:15.702Z,98927
2018-03-24T03:40:44.041Z,98925
2018-03-24T03:43:12.089Z,98919
2018-03-24T03:45:39.313Z,98925
2018-03-24T03:48:06.998Z,98917
2018-03-24T03:50:35.478Z,98914
2018-03-24T03:53:02.770Z,98914
2018-03-24T03:55:29.894Z,98912
2018-03-24T03:57:57.152Z,98918
2018-03-24T04:00:27.441Z,98919
2018-03-24T04:02:54.741Z,98915
2018-03-24T04:05:21.957Z,98917
2018-03-24T04:07:49.128Z,98911
2018-03-24T04:10:20.117Z,98915
2018-03-24T04:12:47.409Z,98909
2018-03-24T04:15:14.672Z,98908
2018-03-24T04:17:42.072Z,98907
2018-03-24T04:20:11.133Z,98916
2018-03-24T04:22:38.386Z,98920
2018-03-24T04:25:05.604Z,98926
2018-03-24T04:27:33.110Z,98926
2018-03-24T04:30:05.033Z,98925
2018-03-24T04:32:32.394Z,98935
2018-03-24T04:34:59.665Z,98935
2018-03-24T04:37:26.834Z,98932
2018-03-24T04:39:57.005Z,98931
2018-03-24T04:42:24.216Z,98929
2018-03-24T04:44:51.438Z,98927
2018-03-24T04:47:18.633Z,98925
2018-03-24T04:49:47.006Z,98922
2018-03-24T04:52:14.202Z,98932
2018-03-24T04:54:41.397Z,98928
2018-03-24T04:57:08.692Z,98931
2018-03-24T04:59:39.751Z,98934
2018-03-24T05:02:07.028Z,98939
2018-03-24T05:04:34.169Z,98943
2018-03-24T05:07:01.274Z,98951
2018-03-24T05:09:33.390Z,98943
2018-03-24T05:12:00.568Z,98948
2018-03-24T05:14:27.894Z,98956
2018-03-24T05:16:55.129Z,98954
2018-03-24T05:19:25.469Z,98953
2018-03-24T05:21:52.703Z,98960
2018-03-24T05:24:19.898Z,98959
2018-03-24T05:26:47.079Z,98962
2018-03-24T05:29:17.904Z,98961
2018-03-24T05:31:45.158Z,98960
2018-03-24T05:34:12.494Z,98962
2018-03-24T05:36:40.210Z,98967
2018-03-24T05:39:08.706Z,98971
2018-03-24T05:41:35.891Z,98970
2018-03-24T05:44:03.217Z,98975
2018-03-24T05:46:30.516Z,98975
2018-03-24T05:48:57.761Z,98977
2018-03-24T05:51:25.046Z,98975
2018-03-24T05:53:52.327Z,98985
2018-03-24T05:56:19.667Z,98988
2018-03-24T05:58:50.567Z,99001
2018-03-24T06:01:17.821Z,99011
2018-03-24T06:03:45.258Z,99017
2018-03-24T06:06:12.449Z,99009
2018-03-24T06:08:39.493Z,99023
2018-03-24T06:11:06.926Z,99022
2018-03-24T06:13:34.600Z,99023
2018-03-24T06:16:01.723Z,99023
2018-03-24T06:18:28.950Z,99019
2018-03-24T06:20:56.250Z,99020
2018-03-24T06:23:23.555Z,99023
2018-03-24T06:25:50.781Z,99026
2018-03-24T06:28:18.089Z,99037
2018-03-24T06:30:47.134Z,99042
2018-03-24T06:33:14.409Z,99040
2018-03-24T06:35:41.738Z,99042
2018-03-24T06:38:08.900Z,99042
2018-03-24T06:40:39.994Z,99045
2018-03-24T06:43:07.333Z,99038
2018-03-24T06:45:34.543Z,99046
2018-03-24T06:48:01.872Z,99049
2018-03-24T06:50:32.373Z,99062
2018-03-24T06:52:59.714Z,99071
2018-03-24T06:55:27.014Z,99081
2018-03-24T06:57:54.368Z,99076
2018-03-24T07:00:22.718Z,99078
2018-03-24T07:02:49.901Z,99088
2018-03-24T07:05:17.900Z,99086
2018-03-24T07:07:45.128Z,99082
2018-03-24T07:10:12.557Z,99061
2018-03-24T07:12:39.810Z,99092
2018-03-24T07:15:07.118Z,99086
2018-03-24T07:17:34.330Z,99088
2018-03-24T07:20:01.535Z,99082
2018-03-24T07:22:28.883Z,99077
2018-03-24T07:24:56.757Z,99106
2018-03-24T07:27:23.971Z,99130
2018-03-24T07:29:52.528Z,99130
2018-03-24T07:32:19.674Z,99124
2018-03-24T07:34:46.874Z,99128
2018-03-24T07:37:14.194Z,99126
2018-03-24T07:39:41.730Z,99121
2018-03-24T07:42:08.938Z,99125
2018-03-24T07:44:36.177Z,99129
2018-03-24T07:47:03.329Z,99134
2018-03-24T07:49:30.840Z,99139
2018-03-24T07:51:58.837Z,99147
2018-03-24T07:54:26.522Z,99152
2018-03-24T07:56:53.826Z,99155
2018-03-24T07:59:21.123Z,99149
2018-03-24T08:01:48.406Z,99157
2018-03-24T08:04:15.628Z,99157
2018-03-24T08:06:42.826Z,99164
2018-03-24T08:09:11.283Z,99161
2018-03-24T08:11:39.048Z,99166
2018-03-24T08:14:06.287Z,99165
2018-03-24T08:16:33.619Z,99158
2018-03-24T08:19:01.681Z,99154
2018-03-24T08:21:28.995Z,99155
2018-03-24T08:23:56.190Z,99152
2018-03-24T08:26:23.602Z,99154
2018-03-24T08:28:54.485Z,99151
2018-03-24T08:31:21.737Z,99154
2018-03-24T08:33:49.001Z,99149
2018-03-24T08:36:16.588Z,99155
2018-03-24T08:38:47.046Z,99150
2018-03-24T08:41:14.417Z,99167
2018-03-24T08:43:41.658Z,99166
2018-03-24T08:46:08.950Z,99174
2018-03-24T08:48:37.079Z,99180
2018-03-24T08:51:04.362Z,99184
2018-03-24T08:53:31.602Z,99197
2018-03-24T08:55:59.086Z,99199
2018-03-24T08:58:29.469Z,99209
2018-03-24T09:00:56.808Z,99212
2018-03-24T09:03:23.865Z,99203
2018-03-24T09:05:50.997Z,99200
2018-03-24T09:08:19.822Z,99206
2018-03-24T09:10:47.114Z,99207
2018-03-24T09:13:14.458Z,99209
2018-03-24T09:15:41.754Z,99208
2018-03-24T09:18:08.970Z,99206
2018-03-24T09:20:36.242Z,99201
2018-03-24T09:23:03.659Z,99197
2018-03-24T09:25:30.914Z,99204
2018-03-24T09:27:58.119Z,99205
2018-03-24T09:30:28.897Z,99205
2018-03-24T09:32:56.653Z,99214
2018-03-24T09:35:23.820Z,99209
2018-03-24T09:37:52.278Z,99218
2018-03-24T09:40:21.379Z,99215
2018-03-24T09:42:48.668Z,99213
2018-03-24T09:45:15.967Z,99212
2018-03-24T09:47:43.205Z,99213
2018-03-24T09:50:14.423Z,99216
2018-03-24T09:52:41.817Z,99218
2018-03-24T09:55:09.450Z,99225
2018-03-24T09:57:36.654Z,99222
2018-03-24T10:00:08.846Z,99213
2018-03-24T10:02:36.114Z,99220
2018-03-24T10:11:46.599Z,99220
2018-03-24T10:14:13.971Z,99224
2018-03-24T10:16:41.145Z,99231
2018-03-24T10:19:15.473Z,99231
2018-03-24T10:24:55.895Z,99247
2018-03-24T10:27:23.009Z,99250
2018-03-24T10:29:51.398Z,99256
2018-03-24T10:32:18.659Z,99250
2018-03-24T10:34:45.735Z,99261
2018-03-24T10:37:13.746Z,99260
2018-03-24T10:39:44.753Z,99257
2018-03-24T10:42:11.991Z,99264
2018-03-24T10:44:39.183Z,99260
2018-03-24T10:47:06.466Z,99263
2018-03-24T10:49:36.887Z,99265
2018-03-24T10:52:04.869Z,99269
2018-03-24T10:54:32.207Z,99267
2018-03-24T10:56:59.451Z,99273
2018-03-24T10:59:27.786Z,99272
2018-03-24T11:01:55.036Z,99270
2018-03-24T11:04:22.336Z,99264
2018-03-24T11:06:49.663Z,99267
2018-03-24T11:09:18.058Z,99268
2018-03-24T11:11:45.397Z,99272
2018-03-24T11:14:12.822Z,99270
2018-03-24T11:16:39.970Z,99272
2018-03-24T11:19:10.394Z,99273
2018-03-24T11:21:37.871Z,99268
2018-03-24T11:24:05.171Z,99268
2018-03-24T11:26:32.938Z,99277
2018-03-24T11:29:03.537Z,99275
2018-03-24T11:31:30.806Z,99286
2018-03-24T11:33:58.067Z,99287
2018-03-24T11:36:25.406Z,99292
2018-03-24T11:38:55.887Z,99294
2018-03-24T11:41:23.074Z,99294
2018-03-24T11:43:50.333Z,99297
2018-03-24T11:46:17.541Z,99301
2018-03-24T11:48:46.007Z,99297
2018-03-24T11:51:13.207Z,99308
2018-03-24T11:53:45.997Z,99313
2018-03-24T11:56:13.191Z,99309
2018-03-24T11:58:44.619Z,99311
2018-03-24T12:01:11.883Z,99316
2018-03-24T12:03:39.190Z,99321
2018-03-24T12:06:06.525Z,99316
2018-03-24T12:08:37.844Z,99322
2018-03-24T12:11:05.079Z,99325
2018-03-24T12:13:32.399Z,99334
2018-03-24T12:15:59.646Z,99344
2018-03-24T12:18:30.037Z,99343
2018-03-24T12:20:57.290Z,99348
2018-03-24T12:23:24.608Z,99340
2018-03-24T12:25:51.981Z,99343
2018-03-24T12:28:20.467Z,99343
2018-03-24T12:30:47.754Z,99346
2018-03-24T12:33:15.071Z,99341
2018-03-24T12:35:43.088Z,99340
2018-03-24T12:38:10.639Z,99338
2018-03-24T12:40:38.721Z,99345
2018-03-24T12:43:06.020Z,99341
2018-03-24T12:45:33.264Z,99341
2018-03-24T12:48:01.542Z,99339
2018-03-24T12:50:28.909Z,99344
2018-03-24T12:52:56.051Z,99350
2018-03-24T12:55:23.279Z,99352
2018-03-24T12:57:54.014Z,99346
2018-03-24T13:00:21.276Z,99341
2018-03-24T13:02:48.596Z,99344
2018-03-24T13:05:15.822Z,99354
2018-03-24T13:07:44.220Z,99363
2018-03-24T13:10:12.220Z,99366
2018-03-24T13:12:40.479Z,99365
2018-03-24T13:15:07.808Z,99366
2018-03-24T13:17:35.138Z,99371
2018-03-24T13:20:02.270Z,99375
2018-03-24T13:22:29.445Z,99372
2018-03-24T13:24:57.509Z,99368
2018-03-24T13:27:24.850Z,99384
2018-03-24T13:29:52.181Z,99380
2018-03-24T13:32:19.524Z,99387
2018-03-24T13:34:46.775Z,99398
2018-03-24T13:37:13.984Z,99398
2018-03-24T13:39:45.082Z,99403
2018-03-24T13:42:12.295Z,99409
2018-03-24T13:44:39.839Z,99404
2018-03-24T13:47:07.178Z,99410
2018-03-24T13:49:35.363Z,99413
2018-03-24T13:52:04.151Z,99425
2018-03-24T13:54:31.483Z,99423
2018-03-24T13:56:58.730Z,99436
2018-03-24T13:59:27.575Z,99439
2018-03-24T14:01:54.846Z,99448
2018-03-24T14:04:22.113Z,99450
2018-03-24T14:06:49.178Z,99452
2018-03-24T14:09:17.662Z,99451
2018-03-24T14:11:44.911Z,99458
2018-03-24T14:14:12.256Z,99458
2018-03-24T14:16:39.473Z,99465
2018-03-24T14:19:10.638Z,99470
2018-03-24T14:21:37.931Z,99462
2018-03-24T14:24:05.260Z,99464
2018-03-24T14:26:33.702Z,99467
2018-03-24T14:29:01.175Z,99465
2018-03-24T14:31:28.399Z,99466
2018-03-24T14:33:55.589Z,99459
2018-03-24T14:36:22.776Z,99466
2018-03-24T14:38:51.167Z,99466
2018-03-24T14:41:18.862Z,99473
2018-03-24T14:43:46.074Z,99481
2018-03-24T14:46:13.346Z,99486
2018-03-24T14:48:46.794Z,99486
2018-03-24T14:51:14.056Z,99489
2018-03-24T14:53:41.269Z,99492
2018-03-24T14:56:08.641Z,99500
2018-03-24T14:58:37.545Z,99498
2018-03-24T15:01:04.798Z,99501
2018-03-24T15:03:32.076Z,99508
2018-03-24T15:06:00.091Z,99509
2018-03-24T15:08:28.829Z,99510
2018-03-24T15:10:56.141Z,99506
2018-03-24T15:13:23.437Z,99518
2018-03-24T15:15:50.634Z,99521
2018-03-24T15:18:19.553Z,99527
2018-03-24T15:20:46.930Z,99527
2018-03-24T15:23:14.162Z,99533
2018-03-24T15:25:41.534Z,99538
2018-03-24T15:28:08.866Z,99536
2018-03-24T15:30:53.933Z,99536
2018-03-24T15:36:42.260Z,99540
2018-03-24T15:39:09.592Z,99546
2018-03-24T15:41:36.743Z,99547
2018-03-24T15:44:03.977Z,99555
2018-03-24T15:46:31.315Z,99555
2018-03-24T15:48:58.684Z,99564
2018-03-24T15:51:25.852Z,99568
2018-03-24T15:53:53.239Z,99569
2018-03-24T15:56:20.579Z,99568
2018-03-24T15:58:51.236Z,99564
2018-03-24T16:01:19.009Z,99575
2018-03-24T16:03:46.238Z,99580
2018-03-24T16:06:13.494Z,99583
2018-03-24T16:08:44.454Z,99584
2018-03-24T16:11:11.757Z,99578
2018-03-24T16:13:39.085Z,99587
2018-03-24T16:16:06.502Z,99583
2018-03-24T16:18:34.668Z,99584
2018-03-24T16:21:02.360Z,99593
2018-03-24T16:23:29.577Z,99598
2018-03-24T16:25:56.830Z,99598
2018-03-24T16:28:25.311Z,99606
2018-03-24T16:30:53.573Z,99607
2018-03-24T16:33:21.574Z,99612
2018-03-24T16:35:48.842Z,99616
2018-03-24T16:38:18.223Z,99620
2018-03-24T16:40:45.451Z,99626
2018-03-24T16:43:12.956Z,99627
2018-03-24T16:45:40.283Z,99632
2018-03-24T16:48:08.423Z,99638
2018-03-24T16:50:35.804Z,99634
2018-03-24T16:53:03.044Z,99646
2018-03-24T16:55:30.936Z,99652
2018-03-24T16:58:03.277Z,99660
2018-03-24T17:00:30.599Z,99662
2018-03-24T17:02:57.894Z,99668
2018-03-24T17:05:25.106Z,99672
2018-03-24T17:07:52.414Z,99674
2018-03-24T17:10:19.931Z,99675
2018-03-24T17:12:47.091Z,99672
2018-03-24T17:15:14.339Z,99677
2018-03-24T17:17:41.679Z,99681
2018-03-24T17:20:09.000Z,99683
2018-03-24T17:22:36.357Z,99690
2018-03-24T17:25:03.810Z,99696
2018-03-24T17:27:32.218Z,99695
2018-03-24T17:29:59.688Z,99696
2018-03-24T17:32:27.663Z,99696
2018-03-24T17:34:55.074Z,99700
2018-03-24T17:37:22.430Z,99704
2018-03-24T17:39:49.703Z,99707
2018-03-24T17:42:18.075Z,99711
2018-03-24T17:44:45.306Z,99714
2018-03-24T17:47:14.351Z,99712
2018-03-24T17:49:41.645Z,99716
2018-03-24T17:52:08.766Z,99719
2018-03-24T17:54:35.940Z,99718
2018-03-24T17:57:03.324Z,99720
2018-03-24T17:59:30.506Z,99723
2018-03-24T18:01:58.409Z,99722
2018-03-24T18:04:25.920Z,99726
2018-03-24T18:06:53.205Z,99722
2018-03-24T18:09:20.583Z,99730
2018-03-24T18:11:47.714Z,99726
2018-03-24T18:14:15.529Z,99727
2018-03-24T18:16:43.915Z,99725
2018-03-24T18:19:12.220Z,99732
2018-03-24T18:21:42.933Z,99736
2018-03-24T18:24:10.239Z,99741
2018-03-24T18:26:38.841Z,99743
2018-03-24T18:29:07.016Z,99745
2018-03-24T18:31:34.335Z,99754
2018-03-24T18:34:01.568Z,99755
2018-03-24T18:36:28.806Z,99754
2018-03-24T18:38:59.430Z,99761
2018-03-24T18:41:26.732Z,99767
2018-03-24T18:43:54.953Z,99775
2018-03-24T18:46:22.285Z,99773
2018-03-24T18:48:50.593Z,99782
2018-03-24T18:51:18.163Z,99791
2018-03-24T18:53:45.467Z,99800
2018-03-24T18:56:12.475Z,99797
2018-03-24T18:58:44.046Z,99798
2018-03-24T19:01:12.475Z,99797
2018-03-24T19:03:40.271Z,99794
2018-03-24T19:06:07.408Z,99800
2018-03-24T19:08:35.862Z,99806
2018-03-24T19:11:03.094Z,99803
2018-03-24T19:13:30.825Z,99811
2018-03-24T19:15:59.005Z,99809
2018-03-24T19:18:26.209Z,99818
2018-03-24T19:20:53.684Z,99827
2018-03-24T19:23:20.942Z,99823
2018-03-24T19:25:48.187Z,99827
2018-03-24T19:28:18.473Z,99830
2018-03-24T19:30:45.692Z,99833
2018-03-24T19:33:13.870Z,99832
2018-03-24T19:35:41.226Z,99828
2018-03-24T19:38:09.371Z,99833
2018-03-24T19:40:36.722Z,99836
2018-03-24T19:43:04.883Z,99838
2018-03-24T19:45:32.163Z,99843
2018-03-24T19:48:02.825Z,99847
2018-03-24T19:50:31.033Z,99850
2018-03-24T19:52:58.377Z,99847
2018-03-24T19:55:25.672Z,99850
2018-03-24T19:57:52.945Z,99853
2018-03-24T20:00:20.319Z,99855
2018-03-24T20:02:48.438Z,99852
2018-03-24T20:05:16.103Z,99848
2018-03-24T20:07:47.194Z,99849
2018-03-24T20:10:15.174Z,99848
2018-03-24T20:12:42.617Z,99848
2018-03-24T20:15:09.856Z,99855
2018-03-24T20:17:37.378Z,99852
2018-03-24T20:20:04.746Z,99850
2018-03-24T20:22:31.951Z,99849
2018-03-24T20:24:59.958Z,99849
2018-03-24T20:27:30.392Z,99856
2018-03-24T20:29:57.614Z,99851
2018-03-24T20:32:24.914Z,99859
2018-03-24T20:34:52.152Z,99863
2018-03-24T20:37:20.537Z,99857
2018-03-24T20:39:47.910Z,99856
2018-03-24T20:42:15.136Z,99858
2018-03-24T20:44:42.287Z,99857
2018-03-24T20:47:10.579Z,99866
2018-03-24T20:49:37.763Z,99860
2018-03-24T20:52:05.081Z,99861
2018-03-24T20:54:32.354Z,99867
2018-03-24T20:56:59.946Z,99876
2018-03-24T20:59:27.221Z,99869
2018-03-24T21:01:54.367Z,99872
2018-03-24T21:04:21.602Z,99876
2018-03-24T21:06:49.614Z,99871
2018-03-24T21:09:16.811Z,99863
2018-03-24T21:11:44.009Z,99867
2018-03-24T21:14:11.228Z,99868
2018-03-24T21:16:40.114Z,99861
2018-03-24T21:19:07.361Z,99858
2018-03-24T21:21:34.554Z,99852
2018-03-24T21:24:01.738Z,99850
2018-03-24T21:26:30.115Z,99853
2018-03-24T21:28:57.229Z,99860
2018-03-24T21:31:24.463Z,99860
2018-03-24T21:33:51.676Z,99856
2018-03-24T21:36:19.023Z,99859
2018-03-24T21:38:46.249Z,99863
2018-03-24T21:41:13.538Z,99863
2018-03-24T21:43:40.831Z,99868
2018-03-24T21:46:08.873Z,99866
2018-03-24T21:48:39.770Z,99858
2018-03-24T21:51:07.034Z,99865
2018-03-24T21:53:34.333Z,99868
2018-03-24T21:56:01.522Z,99865
2018-03-24T21:58:31.916Z,99859
2018-03-24T22:01:01.071Z,99865
2018-03-24T22:03:28.194Z,99864
2018-03-24T22:05:55.427Z,99859
2018-03-24T22:08:26.434Z,99860
2018-03-24T22:10:53.690Z,99858
2018-03-24T22:13:20.910Z,99864
2018-03-24T22:15:48.108Z,99863
2018-03-24T22:18:19.289Z,99866
2018-03-24T22:20:46.614Z,99872
2018-03-24T22:23:13.817Z,99881
2018-03-24T22:25:41.111Z,99889
2018-03-24T22:28:12.434Z,99894
2018-03-24T22:30:39.723Z,99893
2018-03-24T22:33:07.010Z,99887
2018-03-24T22:35:34.250Z,99890
2018-03-24T22:38:04.614Z,99885
2018-03-24T22:40:31.901Z,99889
2018-03-24T22:42:59.109Z,99888
2018-03-24T22:45:26.384Z,99886
2018-03-24T22:47:53.693Z,99883
2018-03-24T22:50:20.990Z,99887
2018-03-24T22:52:48.267Z,99882
2018-03-24T22:55:15.418Z,99876
2018-03-24T22:57:42.602Z,99880
2018-03-24T23:00:09.667Z,99879
2018-03-24T23:02:37.044Z,99882
2018-03-24T23:05:04.349Z,99883
2018-03-24T23:07:31.806Z,99879
2018-03-24T23:09:59.083Z,99888
2018-03-24T23:12:26.346Z,99893
2018-03-24T23:14:53.874Z,99896
2018-03-24T23:17:22.129Z,99892
2018-03-24T23:19:49.324Z,99889
2018-03-24T23:22:16.564Z,99890
2018-03-24T23:24:43.667Z,99890
2018-03-24T23:27:11.002Z,99887
2018-03-24T23:29:38.298Z,99892
2018-03-24T23:32:05.576Z,99889
2018-03-24T23:34:32.711Z,99890
2018-03-24T23:37:01.074Z,99897
2018-03-24T23:39:28.313Z,99901
2018-03-24T23:41:55.596Z,99896
2018-03-24T23:44:22.806Z,99896
2018-03-24T23:46:53.877Z,99897
2018-03-24T23:49:21.917Z,99896
2018-03-24T23:51:49.074Z,99894
2018-03-24T23:54:16.289Z,99898
2018-03-24T23:56:44.552Z,99893
2018-03-24T23:59:12.513Z,99894
